sensor_id;sensor_type;location;lat;lon;timestamp;P1;durP1;ratioP1;P2;durP2;ratioP2
18411;SDS011;27097;51.738;19.472;2022-10-13T00:01:29;22.48;;;11.65;;
18411;SDS011;27097;51.738;19.472;2022-10-13T00:03:56;21.73;;;11.32;;
18411;SDS011;27097;51.738;19.472;2022-10-13T00:06:24;25.05;;;11.70;;
18411;SDS011;27097;51.738;19.472;2022-10-13T00:08:52;21.70;;;11.07;;
18411;SDS011;27097;51.738;19.472;2022-10-13T00:11:21;23.85;;;11.55;;
18411;SDS011;27097;51.738;19.472;2022-10-13T00:13:49;26.20;;;12.35;;
18411;SDS011;27097;51.738;19.472;2022-10-13T00:16:17;24.10;;;11.95;;
18411;SDS011;27097;51.738;19.472;2022-10-13T00:18:45;25.60;;;11.80;;
18411;SDS011;27097;51.738;19.472;2022-10-13T00:21:13;23.20;;;11.45;;
18411;SDS011;27097;51.738;19.472;2022-10-13T00:23:43;24.48;;;12.20;;
18411;SDS011;27097;51.738;19.472;2022-10-13T00:26:10;23.92;;;11.25;;
18411;SDS011;27097;51.738;19.472;2022-10-13T00:28:38;24.20;;;11.90;;
18411;SDS011;27097;51.738;19.472;2022-10-13T00:31:13;25.15;;;11.98;;
18411;SDS011;27097;51.738;19.472;2022-10-13T00:33:40;21.40;;;11.23;;
18411;SDS011;27097;51.738;19.472;2022-10-13T00:36:07;22.30;;;11.90;;
18411;SDS011;27097;51.738;19.472;2022-10-13T00:38:34;29.65;;;11.20;;
18411;SDS011;27097;51.738;19.472;2022-10-13T00:41:02;24.55;;;11.52;;
18411;SDS011;27097;51.738;19.472;2022-10-13T00:46:14;25.80;;;10.90;;
18411;SDS011;27097;51.738;19.472;2022-10-13T00:48:41;21.48;;;11.45;;
18411;SDS011;27097;51.738;19.472;2022-10-13T00:51:10;21.00;;;11.32;;
18411;SDS011;27097;51.738;19.472;2022-10-13T00:53:40;25.00;;;11.73;;
18411;SDS011;27097;51.738;19.472;2022-10-13T00:56:09;23.42;;;11.63;;
18411;SDS011;27097;51.738;19.472;2022-10-13T00:58:38;21.85;;;10.70;;
18411;SDS011;27097;51.738;19.472;2022-10-13T01:01:06;24.63;;;10.80;;
18411;SDS011;27097;51.738;19.472;2022-10-13T01:03:33;21.67;;;9.93;;
18411;SDS011;27097;51.738;19.472;2022-10-13T01:06:02;21.33;;;9.65;;
18411;SDS011;27097;51.738;19.472;2022-10-13T01:08:31;19.48;;;10.00;;
18411;SDS011;27097;51.738;19.472;2022-10-13T01:11:02;22.92;;;10.20;;
18411;SDS011;27097;51.738;19.472;2022-10-13T01:13:47;24.02;;;10.40;;
18411;SDS011;27097;51.738;19.472;2022-10-13T01:16:20;18.63;;;9.40;;
18411;SDS011;27097;51.738;19.472;2022-10-13T01:18:54;16.83;;;9.48;;
18411;SDS011;27097;51.738;19.472;2022-10-13T01:21:27;20.80;;;10.02;;
18411;SDS011;27097;51.738;19.472;2022-10-13T01:27:09;19.15;;;9.65;;
18411;SDS011;27097;51.738;19.472;2022-10-13T01:30:08;16.58;;;9.00;;
18411;SDS011;27097;51.738;19.472;2022-10-13T01:32:46;19.63;;;9.77;;
18411;SDS011;27097;51.738;19.472;2022-10-13T01:35:43;19.40;;;9.63;;
18411;SDS011;27097;51.738;19.472;2022-10-13T01:38:24;19.55;;;9.60;;
18411;SDS011;27097;51.738;19.472;2022-10-13T01:40:58;17.23;;;9.20;;
18411;SDS011;27097;51.738;19.472;2022-10-13T01:43:30;17.55;;;9.23;;
18411;SDS011;27097;51.738;19.472;2022-10-13T01:46:04;17.52;;;8.82;;
18411;SDS011;27097;51.738;19.472;2022-10-13T01:48:36;17.27;;;9.70;;
18411;SDS011;27097;51.738;19.472;2022-10-13T01:51:05;21.08;;;9.40;;
18411;SDS011;27097;51.738;19.472;2022-10-13T01:53:34;16.92;;;8.75;;
18411;SDS011;27097;51.738;19.472;2022-10-13T01:56:01;19.52;;;9.60;;
18411;SDS011;27097;51.738;19.472;2022-10-13T01:58:29;18.75;;;9.57;;
18411;SDS011;27097;51.738;19.472;2022-10-13T02:01:04;16.35;;;8.95;;
18411;SDS011;27097;51.738;19.472;2022-10-13T02:03:42;18.27;;;9.20;;
18411;SDS011;27097;51.738;19.472;2022-10-13T02:06:19;18.35;;;9.00;;
18411;SDS011;27097;51.738;19.472;2022-10-13T02:08:52;18.55;;;9.07;;
18411;SDS011;27097;51.738;19.472;2022-10-13T02:11:23;16.27;;;8.95;;
18411;SDS011;27097;51.738;19.472;2022-10-13T02:13:53;15.55;;;8.80;;
18411;SDS011;27097;51.738;19.472;2022-10-13T02:16:27;15.40;;;9.15;;
18411;SDS011;27097;51.738;19.472;2022-10-13T02:18:56;16.77;;;8.55;;
18411;SDS011;27097;51.738;19.472;2022-10-13T02:21:23;16.65;;;8.30;;
18411;SDS011;27097;51.738;19.472;2022-10-13T02:23:51;15.60;;;8.38;;
18411;SDS011;27097;51.738;19.472;2022-10-13T02:26:18;15.85;;;8.70;;
18411;SDS011;27097;51.738;19.472;2022-10-13T02:28:45;17.17;;;8.40;;
18411;SDS011;27097;51.738;19.472;2022-10-13T02:31:12;18.13;;;9.20;;
18411;SDS011;27097;51.738;19.472;2022-10-13T02:33:40;21.20;;;9.13;;
18411;SDS011;27097;51.738;19.472;2022-10-13T02:36:07;19.10;;;8.93;;
18411;SDS011;27097;51.738;19.472;2022-10-13T02:38:34;14.73;;;8.70;;
18411;SDS011;27097;51.738;19.472;2022-10-13T02:41:01;15.75;;;7.93;;
18411;SDS011;27097;51.738;19.472;2022-10-13T02:43:28;13.60;;;7.90;;
18411;SDS011;27097;51.738;19.472;2022-10-13T02:45:57;16.95;;;8.23;;
18411;SDS011;27097;51.738;19.472;2022-10-13T02:48:24;16.48;;;8.73;;
18411;SDS011;27097;51.738;19.472;2022-10-13T02:50:53;19.50;;;8.50;;
18411;SDS011;27097;51.738;19.472;2022-10-13T02:53:19;18.65;;;8.60;;
18411;SDS011;27097;51.738;19.472;2022-10-13T02:55:46;18.13;;;8.63;;
18411;SDS011;27097;51.738;19.472;2022-10-13T02:58:13;16.25;;;8.38;;
18411;SDS011;27097;51.738;19.472;2022-10-13T03:00:40;14.57;;;8.48;;
18411;SDS011;27097;51.738;19.472;2022-10-13T03:03:07;15.95;;;8.27;;
18411;SDS011;27097;51.738;19.472;2022-10-13T03:05:36;17.67;;;8.80;;
18411;SDS011;27097;51.738;19.472;2022-10-13T03:08:04;15.07;;;8.27;;
18411;SDS011;27097;51.738;19.472;2022-10-13T03:10:31;20.67;;;8.20;;
18411;SDS011;27097;51.738;19.472;2022-10-13T03:12:58;16.23;;;7.70;;
18411;SDS011;27097;51.738;19.472;2022-10-13T03:15:25;17.67;;;8.40;;
18411;SDS011;27097;51.738;19.472;2022-10-13T03:17:52;15.77;;;8.52;;
18411;SDS011;27097;51.738;19.472;2022-10-13T03:20:19;16.27;;;8.05;;
18411;SDS011;27097;51.738;19.472;2022-10-13T03:22:46;17.95;;;8.38;;
18411;SDS011;27097;51.738;19.472;2022-10-13T03:25:14;13.55;;;7.88;;
18411;SDS011;27097;51.738;19.472;2022-10-13T03:27:42;15.70;;;8.55;;
18411;SDS011;27097;51.738;19.472;2022-10-13T03:30:15;15.63;;;7.90;;
18411;SDS011;27097;51.738;19.472;2022-10-13T03:32:41;14.98;;;7.72;;
18411;SDS011;27097;51.738;19.472;2022-10-13T03:35:09;15.80;;;8.05;;
18411;SDS011;27097;51.738;19.472;2022-10-13T03:37:35;14.80;;;7.95;;
18411;SDS011;27097;51.738;19.472;2022-10-13T03:40:03;15.73;;;7.90;;
18411;SDS011;27097;51.738;19.472;2022-10-13T03:42:32;17.40;;;8.77;;
18411;SDS011;27097;51.738;19.472;2022-10-13T03:45:00;14.27;;;8.05;;
18411;SDS011;27097;51.738;19.472;2022-10-13T03:47:27;14.35;;;8.07;;
18411;SDS011;27097;51.738;19.472;2022-10-13T03:49:55;13.57;;;7.57;;
18411;SDS011;27097;51.738;19.472;2022-10-13T03:52:22;15.80;;;7.80;;
18411;SDS011;27097;51.738;19.472;2022-10-13T03:54:49;16.65;;;7.95;;
18411;SDS011;27097;51.738;19.472;2022-10-13T03:57:15;13.38;;;7.53;;
18411;SDS011;27097;51.738;19.472;2022-10-13T03:59:44;14.35;;;8.10;;
18411;SDS011;27097;51.738;19.472;2022-10-13T04:02:11;16.25;;;8.43;;
18411;SDS011;27097;51.738;19.472;2022-10-13T04:04:38;21.48;;;8.52;;
18411;SDS011;27097;51.738;19.472;2022-10-13T04:07:06;14.75;;;7.88;;
18411;SDS011;27097;51.738;19.472;2022-10-13T04:09:33;13.50;;;7.60;;
18411;SDS011;27097;51.738;19.472;2022-10-13T04:12:00;13.70;;;7.57;;
18411;SDS011;27097;51.738;19.472;2022-10-13T04:14:27;13.25;;;7.55;;
18411;SDS011;27097;51.738;19.472;2022-10-13T04:16:55;13.95;;;7.78;;
18411;SDS011;27097;51.738;19.472;2022-10-13T04:19:22;14.52;;;7.60;;
18411;SDS011;27097;51.738;19.472;2022-10-13T04:21:49;17.15;;;8.00;;
18411;SDS011;27097;51.738;19.472;2022-10-13T04:24:16;12.85;;;7.43;;
18411;SDS011;27097;51.738;19.472;2022-10-13T04:26:43;14.38;;;7.75;;
18411;SDS011;27097;51.738;19.472;2022-10-13T04:29:11;14.25;;;7.38;;
18411;SDS011;27097;51.738;19.472;2022-10-13T04:31:39;15.27;;;8.13;;
18411;SDS011;27097;51.738;19.472;2022-10-13T04:34:09;13.07;;;7.38;;
18411;SDS011;27097;51.738;19.472;2022-10-13T04:36:36;14.02;;;7.85;;
18411;SDS011;27097;51.738;19.472;2022-10-13T04:39:03;12.38;;;7.43;;
18411;SDS011;27097;51.738;19.472;2022-10-13T04:41:30;14.50;;;7.85;;
18411;SDS011;27097;51.738;19.472;2022-10-13T04:43:57;12.48;;;7.38;;
18411;SDS011;27097;51.738;19.472;2022-10-13T04:46:27;13.98;;;7.32;;
18411;SDS011;27097;51.738;19.472;2022-10-13T04:48:55;13.30;;;7.80;;
18411;SDS011;27097;51.738;19.472;2022-10-13T04:51:24;13.68;;;7.88;;
18411;SDS011;27097;51.738;19.472;2022-10-13T04:53:55;15.23;;;7.70;;
18411;SDS011;27097;51.738;19.472;2022-10-13T04:56:22;16.63;;;7.30;;
18411;SDS011;27097;51.738;19.472;2022-10-13T04:58:50;14.15;;;7.15;;
18411;SDS011;27097;51.738;19.472;2022-10-13T05:01:18;13.00;;;7.20;;
18411;SDS011;27097;51.738;19.472;2022-10-13T05:03:46;14.02;;;7.47;;
18411;SDS011;27097;51.738;19.472;2022-10-13T05:06:15;14.98;;;8.00;;
18411;SDS011;27097;51.738;19.472;2022-10-13T05:08:45;19.70;;;7.53;;
18411;SDS011;27097;51.738;19.472;2022-10-13T05:11:12;14.45;;;7.30;;
18411;SDS011;27097;51.738;19.472;2022-10-13T05:13:39;13.48;;;7.43;;
18411;SDS011;27097;51.738;19.472;2022-10-13T05:16:06;15.10;;;8.40;;
18411;SDS011;27097;51.738;19.472;2022-10-13T05:18:35;20.13;;;8.75;;
18411;SDS011;27097;51.738;19.472;2022-10-13T05:21:06;15.80;;;8.40;;
18411;SDS011;27097;51.738;19.472;2022-10-13T05:23:33;15.35;;;8.38;;
18411;SDS011;27097;51.738;19.472;2022-10-13T05:26:02;18.63;;;9.38;;
18411;SDS011;27097;51.738;19.472;2022-10-13T05:28:30;19.70;;;9.35;;
18411;SDS011;27097;51.738;19.472;2022-10-13T05:31:06;19.95;;;8.82;;
18411;SDS011;27097;51.738;19.472;2022-10-13T05:33:34;23.05;;;8.90;;
18411;SDS011;27097;51.738;19.472;2022-10-13T05:36:03;17.88;;;8.75;;
18411;SDS011;27097;51.738;19.472;2022-10-13T05:38:30;19.77;;;8.63;;
18411;SDS011;27097;51.738;19.472;2022-10-13T05:41:00;25.20;;;8.88;;
18411;SDS011;27097;51.738;19.472;2022-10-13T05:43:32;22.95;;;9.60;;
18411;SDS011;27097;51.738;19.472;2022-10-13T05:46:00;20.65;;;8.50;;
18411;SDS011;27097;51.738;19.472;2022-10-13T05:48:27;27.75;;;8.68;;
18411;SDS011;27097;51.738;19.472;2022-10-13T05:50:54;23.40;;;8.32;;
18411;SDS011;27097;51.738;19.472;2022-10-13T05:53:24;18.33;;;7.80;;
18411;SDS011;27097;51.738;19.472;2022-10-13T05:55:55;22.75;;;8.30;;
18411;SDS011;27097;51.738;19.472;2022-10-13T05:58:31;27.23;;;8.27;;
18411;SDS011;27097;51.738;19.472;2022-10-13T06:00:59;29.83;;;9.27;;
18411;SDS011;27097;51.738;19.472;2022-10-13T06:03:29;25.38;;;8.55;;
18411;SDS011;27097;51.738;19.472;2022-10-13T06:05:57;37.65;;;9.15;;
18411;SDS011;27097;51.738;19.472;2022-10-13T06:08:24;22.30;;;9.38;;
18411;SDS011;27097;51.738;19.472;2022-10-13T06:10:51;21.45;;;8.65;;
18411;SDS011;27097;51.738;19.472;2022-10-13T06:13:18;22.38;;;8.60;;
18411;SDS011;27097;51.738;19.472;2022-10-13T06:15:46;16.17;;;8.07;;
18411;SDS011;27097;51.738;19.472;2022-10-13T06:18:13;17.23;;;8.07;;
18411;SDS011;27097;51.738;19.472;2022-10-13T06:20:41;22.40;;;8.63;;
18411;SDS011;27097;51.738;19.472;2022-10-13T06:23:09;18.98;;;8.45;;
18411;SDS011;27097;51.738;19.472;2022-10-13T06:25:36;21.70;;;9.27;;
18411;SDS011;27097;51.738;19.472;2022-10-13T06:28:03;23.70;;;9.80;;
18411;SDS011;27097;51.738;19.472;2022-10-13T06:30:30;21.17;;;9.40;;
18411;SDS011;27097;51.738;19.472;2022-10-13T06:32:58;20.50;;;9.43;;
18411;SDS011;27097;51.738;19.472;2022-10-13T06:35:25;18.25;;;9.07;;
18411;SDS011;27097;51.738;19.472;2022-10-13T06:37:52;17.88;;;9.20;;
18411;SDS011;27097;51.738;19.472;2022-10-13T06:40:19;22.27;;;8.85;;
18411;SDS011;27097;51.738;19.472;2022-10-13T06:42:49;28.40;;;9.18;;
18411;SDS011;27097;51.738;19.472;2022-10-13T06:45:16;19.23;;;8.60;;
18411;SDS011;27097;51.738;19.472;2022-10-13T06:47:43;19.75;;;8.93;;
18411;SDS011;27097;51.738;19.472;2022-10-13T06:50:11;18.20;;;8.95;;
18411;SDS011;27097;51.738;19.472;2022-10-13T06:52:38;21.30;;;9.73;;
18411;SDS011;27097;51.738;19.472;2022-10-13T06:55:05;20.00;;;9.10;;
18411;SDS011;27097;51.738;19.472;2022-10-13T06:57:33;19.27;;;8.98;;
18411;SDS011;27097;51.738;19.472;2022-10-13T07:00:00;20.88;;;9.07;;
18411;SDS011;27097;51.738;19.472;2022-10-13T07:02:27;25.08;;;9.05;;
18411;SDS011;27097;51.738;19.472;2022-10-13T07:04:53;18.98;;;8.65;;
18411;SDS011;27097;51.738;19.472;2022-10-13T07:07:22;20.52;;;8.55;;
18411;SDS011;27097;51.738;19.472;2022-10-13T07:09:49;19.73;;;7.90;;
18411;SDS011;27097;51.738;19.472;2022-10-13T07:12:17;18.13;;;8.73;;
18411;SDS011;27097;51.738;19.472;2022-10-13T07:14:44;16.45;;;8.57;;
18411;SDS011;27097;51.738;19.472;2022-10-13T07:17:12;20.85;;;8.65;;
18411;SDS011;27097;51.738;19.472;2022-10-13T07:19:42;19.58;;;8.10;;
18411;SDS011;27097;51.738;19.472;2022-10-13T07:22:15;19.67;;;8.30;;
18411;SDS011;27097;51.738;19.472;2022-10-13T07:24:46;21.38;;;8.70;;
18411;SDS011;27097;51.738;19.472;2022-10-13T07:27:12;14.95;;;8.38;;
18411;SDS011;27097;51.738;19.472;2022-10-13T07:29:40;15.20;;;7.80;;
18411;SDS011;27097;51.738;19.472;2022-10-13T07:32:12;18.73;;;8.35;;
18411;SDS011;27097;51.738;19.472;2022-10-13T07:34:41;16.33;;;8.23;;
18411;SDS011;27097;51.738;19.472;2022-10-13T07:37:26;15.73;;;8.13;;
18411;SDS011;27097;51.738;19.472;2022-10-13T07:40:13;20.10;;;8.07;;
18411;SDS011;27097;51.738;19.472;2022-10-13T07:42:43;18.58;;;7.95;;
18411;SDS011;27097;51.738;19.472;2022-10-13T07:45:10;18.48;;;7.97;;
18411;SDS011;27097;51.738;19.472;2022-10-13T07:47:37;19.98;;;7.68;;
18411;SDS011;27097;51.738;19.472;2022-10-13T07:50:04;19.33;;;7.78;;
18411;SDS011;27097;51.738;19.472;2022-10-13T07:52:33;19.02;;;7.90;;
18411;SDS011;27097;51.738;19.472;2022-10-13T07:55:03;15.60;;;7.50;;
18411;SDS011;27097;51.738;19.472;2022-10-13T07:57:32;22.25;;;7.70;;
18411;SDS011;27097;51.738;19.472;2022-10-13T07:59:59;15.88;;;7.43;;
18411;SDS011;27097;51.738;19.472;2022-10-13T08:02:30;15.55;;;7.95;;
18411;SDS011;27097;51.738;19.472;2022-10-13T08:04:57;21.30;;;7.63;;
18411;SDS011;27097;51.738;19.472;2022-10-13T08:07:24;14.40;;;7.50;;
18411;SDS011;27097;51.738;19.472;2022-10-13T08:09:55;20.02;;;7.78;;
18411;SDS011;27097;51.738;19.472;2022-10-13T08:12:24;14.52;;;7.35;;
18411;SDS011;27097;51.738;19.472;2022-10-13T08:14:53;15.85;;;7.13;;
18411;SDS011;27097;51.738;19.472;2022-10-13T08:17:20;16.33;;;7.22;;
18411;SDS011;27097;51.738;19.472;2022-10-13T08:19:50;16.05;;;7.40;;
18411;SDS011;27097;51.738;19.472;2022-10-13T08:22:16;16.60;;;7.45;;
18411;SDS011;27097;51.738;19.472;2022-10-13T08:24:43;15.93;;;7.05;;
18411;SDS011;27097;51.738;19.472;2022-10-13T08:27:10;16.35;;;7.43;;
18411;SDS011;27097;51.738;19.472;2022-10-13T08:29:42;16.63;;;7.60;;
18411;SDS011;27097;51.738;19.472;2022-10-13T08:32:10;19.45;;;8.00;;
18411;SDS011;27097;51.738;19.472;2022-10-13T08:34:37;18.02;;;7.63;;
18411;SDS011;27097;51.738;19.472;2022-10-13T08:37:04;15.45;;;7.47;;
18411;SDS011;27097;51.738;19.472;2022-10-13T08:39:40;15.93;;;7.93;;
18411;SDS011;27097;51.738;19.472;2022-10-13T08:42:11;17.83;;;8.20;;
18411;SDS011;27097;51.738;19.472;2022-10-13T08:44:42;18.75;;;8.07;;
18411;SDS011;27097;51.738;19.472;2022-10-13T08:47:14;16.55;;;7.78;;
18411;SDS011;27097;51.738;19.472;2022-10-13T08:49:53;21.73;;;8.43;;
18411;SDS011;27097;51.738;19.472;2022-10-13T08:52:22;22.08;;;8.95;;
18411;SDS011;27097;51.738;19.472;2022-10-13T08:54:51;15.73;;;7.80;;
18411;SDS011;27097;51.738;19.472;2022-10-13T08:57:20;20.60;;;8.02;;
18411;SDS011;27097;51.738;19.472;2022-10-13T08:59:47;18.58;;;7.60;;
18411;SDS011;27097;51.738;19.472;2022-10-13T09:02:20;16.83;;;7.60;;
18411;SDS011;27097;51.738;19.472;2022-10-13T09:04:50;17.33;;;7.75;;
18411;SDS011;27097;51.738;19.472;2022-10-13T09:07:19;19.42;;;7.85;;
18411;SDS011;27097;51.738;19.472;2022-10-13T09:09:49;13.25;;;7.00;;
18411;SDS011;27097;51.738;19.472;2022-10-13T09:12:17;15.55;;;7.28;;
18411;SDS011;27097;51.738;19.472;2022-10-13T09:14:55;17.63;;;7.53;;
18411;SDS011;27097;51.738;19.472;2022-10-13T09:17:25;17.65;;;7.20;;
18411;SDS011;27097;51.738;19.472;2022-10-13T09:19:56;15.30;;;6.70;;
18411;SDS011;27097;51.738;19.472;2022-10-13T09:22:25;15.52;;;6.40;;
18411;SDS011;27097;51.738;19.472;2022-10-13T09:25:01;15.32;;;7.10;;
18411;SDS011;27097;51.738;19.472;2022-10-13T09:27:40;12.63;;;6.47;;
18411;SDS011;27097;51.738;19.472;2022-10-13T09:30:23;14.27;;;6.65;;
18411;SDS011;27097;51.738;19.472;2022-10-13T09:32:56;13.45;;;5.82;;
18411;SDS011;27097;51.738;19.472;2022-10-13T09:35:41;21.85;;;5.90;;
18411;SDS011;27097;51.738;19.472;2022-10-13T09:38:09;13.55;;;6.30;;
18411;SDS011;27097;51.738;19.472;2022-10-13T09:40:39;14.02;;;5.10;;
18411;SDS011;27097;51.738;19.472;2022-10-13T09:43:19;13.05;;;5.22;;
18411;SDS011;27097;51.738;19.472;2022-10-13T09:45:54;13.68;;;5.32;;
18411;SDS011;27097;51.738;19.472;2022-10-13T09:48:24;13.00;;;5.53;;
18411;SDS011;27097;51.738;19.472;2022-10-13T09:50:53;9.55;;;4.78;;
18411;SDS011;27097;51.738;19.472;2022-10-13T09:53:23;14.27;;;4.78;;
18411;SDS011;27097;51.738;19.472;2022-10-13T09:58:45;13.43;;;4.43;;
18411;SDS011;27097;51.738;19.472;2022-10-13T10:01:18;10.82;;;4.60;;
18411;SDS011;27097;51.738;19.472;2022-10-13T10:03:51;9.82;;;4.32;;
18411;SDS011;27097;51.738;19.472;2022-10-13T10:06:19;10.20;;;4.60;;
18411;SDS011;27097;51.738;19.472;2022-10-13T10:08:51;8.43;;;4.05;;
18411;SDS011;27097;51.738;19.472;2022-10-13T10:11:24;10.85;;;4.50;;
18411;SDS011;27097;51.738;19.472;2022-10-13T10:13:57;13.00;;;4.03;;
18411;SDS011;27097;51.738;19.472;2022-10-13T10:16:29;10.63;;;4.03;;
18411;SDS011;27097;51.738;19.472;2022-10-13T10:19:04;8.75;;;3.67;;
18411;SDS011;27097;51.738;19.472;2022-10-13T10:21:36;7.70;;;3.28;;
18411;SDS011;27097;51.738;19.472;2022-10-13T10:24:13;9.45;;;3.65;;
18411;SDS011;27097;51.738;19.472;2022-10-13T10:26:52;10.50;;;3.67;;
18411;SDS011;27097;51.738;19.472;2022-10-13T10:29:25;6.65;;;3.38;;
18411;SDS011;27097;51.738;19.472;2022-10-13T10:32:03;9.27;;;3.53;;
18411;SDS011;27097;51.738;19.472;2022-10-13T10:34:44;11.63;;;3.60;;
18411;SDS011;27097;51.738;19.472;2022-10-13T10:37:17;6.32;;;3.33;;
18411;SDS011;27097;51.738;19.472;2022-10-13T10:39:50;7.75;;;3.78;;
18411;SDS011;27097;51.738;19.472;2022-10-13T10:42:31;9.10;;;3.63;;
18411;SDS011;27097;51.738;19.472;2022-10-13T10:45:12;6.40;;;3.80;;
18411;SDS011;27097;51.738;19.472;2022-10-13T10:47:43;9.68;;;4.00;;
18411;SDS011;27097;51.738;19.472;2022-10-13T10:50:15;8.73;;;3.72;;
18411;SDS011;27097;51.738;19.472;2022-10-13T10:52:46;10.93;;;3.83;;
18411;SDS011;27097;51.738;19.472;2022-10-13T10:55:19;10.30;;;3.70;;
18411;SDS011;27097;51.738;19.472;2022-10-13T10:57:53;10.30;;;4.18;;
18411;SDS011;27097;51.738;19.472;2022-10-13T11:00:27;7.82;;;4.22;;
18411;SDS011;27097;51.738;19.472;2022-10-13T11:02:56;9.55;;;4.78;;
18411;SDS011;27097;51.738;19.472;2022-10-13T11:05:41;10.07;;;4.47;;
18411;SDS011;27097;51.738;19.472;2022-10-13T11:08:25;8.02;;;4.20;;
18411;SDS011;27097;51.738;19.472;2022-10-13T11:13:54;11.93;;;4.45;;
18411;SDS011;27097;51.738;19.472;2022-10-13T11:16:25;9.50;;;4.30;;
18411;SDS011;27097;51.738;19.472;2022-10-13T11:25:00;11.85;;;5.07;;
18411;SDS011;27097;51.738;19.472;2022-10-13T11:27:45;8.90;;;4.35;;
18411;SDS011;27097;51.738;19.472;2022-10-13T11:42:41;13.18;;;4.70;;
18411;SDS011;27097;51.738;19.472;2022-10-13T11:45:29;7.90;;;4.50;;
18411;SDS011;27097;51.738;19.472;2022-10-13T11:51:12;11.32;;;4.82;;
18411;SDS011;27097;51.738;19.472;2022-10-13T11:53:49;9.65;;;5.07;;
18411;SDS011;27097;51.738;19.472;2022-10-13T11:56:20;9.73;;;4.88;;
18411;SDS011;27097;51.738;19.472;2022-10-13T11:58:49;9.20;;;4.90;;
18411;SDS011;27097;51.738;19.472;2022-10-13T12:01:16;8.52;;;5.18;;
18411;SDS011;27097;51.738;19.472;2022-10-13T12:03:45;7.95;;;4.88;;
18411;SDS011;27097;51.738;19.472;2022-10-13T12:06:26;10.23;;;4.93;;
18411;SDS011;27097;51.738;19.472;2022-10-13T12:09:02;10.38;;;5.35;;
18411;SDS011;27097;51.738;19.472;2022-10-13T12:11:32;8.15;;;4.90;;
18411;SDS011;27097;51.738;19.472;2022-10-13T12:14:03;11.90;;;5.50;;
18411;SDS011;27097;51.738;19.472;2022-10-13T12:16:33;12.38;;;4.95;;
18411;SDS011;27097;51.738;19.472;2022-10-13T12:19:07;12.57;;;5.55;;
18411;SDS011;27097;51.738;19.472;2022-10-13T12:21:46;10.48;;;5.55;;
18411;SDS011;27097;51.738;19.472;2022-10-13T12:24:15;13.00;;;5.53;;
18411;SDS011;27097;51.738;19.472;2022-10-13T12:26:42;13.07;;;6.00;;
18411;SDS011;27097;51.738;19.472;2022-10-13T12:29:11;8.98;;;5.20;;
18411;SDS011;27097;51.738;19.472;2022-10-13T12:31:39;9.10;;;4.85;;
18411;SDS011;27097;51.738;19.472;2022-10-13T12:34:15;8.80;;;5.30;;
18411;SDS011;27097;51.738;19.472;2022-10-13T12:36:44;12.20;;;5.95;;
18411;SDS011;27097;51.738;19.472;2022-10-13T12:39:16;14.90;;;5.63;;
18411;SDS011;27097;51.738;19.472;2022-10-13T12:41:45;9.75;;;5.38;;
18411;SDS011;27097;51.738;19.472;2022-10-13T12:44:16;11.40;;;5.40;;
18411;SDS011;27097;51.738;19.472;2022-10-13T12:46:46;13.38;;;5.70;;
18411;SDS011;27097;51.738;19.472;2022-10-13T12:49:18;14.85;;;5.75;;
18411;SDS011;27097;51.738;19.472;2022-10-13T12:51:46;13.43;;;6.20;;
18411;SDS011;27097;51.738;19.472;2022-10-13T12:54:25;10.38;;;6.15;;
18411;SDS011;27097;51.738;19.472;2022-10-13T12:56:55;13.35;;;5.63;;
18411;SDS011;27097;51.738;19.472;2022-10-13T12:59:26;14.50;;;6.50;;
18411;SDS011;27097;51.738;19.472;2022-10-13T13:01:56;11.77;;;5.93;;
18411;SDS011;27097;51.738;19.472;2022-10-13T13:04:30;11.65;;;6.07;;
18411;SDS011;27097;51.738;19.472;2022-10-13T13:07:21;11.75;;;5.88;;
18411;SDS011;27097;51.738;19.472;2022-10-13T13:09:58;13.63;;;6.50;;
18411;SDS011;27097;51.738;19.472;2022-10-13T13:12:40;13.00;;;5.93;;
18411;SDS011;27097;51.738;19.472;2022-10-13T13:15:30;10.75;;;6.22;;
18411;SDS011;27097;51.738;19.472;2022-10-13T13:21:03;10.82;;;5.88;;
18411;SDS011;27097;51.738;19.472;2022-10-13T13:23:31;14.98;;;6.72;;
18411;SDS011;27097;51.738;19.472;2022-10-13T13:26:00;17.25;;;5.80;;
18411;SDS011;27097;51.738;19.472;2022-10-13T13:28:29;14.88;;;5.80;;
18411;SDS011;27097;51.738;19.472;2022-10-13T13:30:58;8.60;;;5.65;;
18411;SDS011;27097;51.738;19.472;2022-10-13T13:33:25;11.90;;;5.88;;
18411;SDS011;27097;51.738;19.472;2022-10-13T13:35:52;11.98;;;5.10;;
18411;SDS011;27097;51.738;19.472;2022-10-13T13:38:20;14.27;;;5.93;;
18411;SDS011;27097;51.738;19.472;2022-10-13T13:40:47;9.65;;;5.68;;
18411;SDS011;27097;51.738;19.472;2022-10-13T13:43:14;8.88;;;5.10;;
18411;SDS011;27097;51.738;19.472;2022-10-13T13:45:41;10.90;;;5.32;;
18411;SDS011;27097;51.738;19.472;2022-10-13T13:48:09;9.32;;;5.00;;
18411;SDS011;27097;51.738;19.472;2022-10-13T13:50:37;12.63;;;5.57;;
18411;SDS011;27097;51.738;19.472;2022-10-13T13:53:05;12.77;;;5.78;;
18411;SDS011;27097;51.738;19.472;2022-10-13T13:55:32;11.00;;;5.60;;
18411;SDS011;27097;51.738;19.472;2022-10-13T13:57:59;10.02;;;5.18;;
18411;SDS011;27097;51.738;19.472;2022-10-13T14:00:26;11.10;;;5.60;;
18411;SDS011;27097;51.738;19.472;2022-10-13T14:02:54;11.32;;;5.13;;
18411;SDS011;27097;51.738;19.472;2022-10-13T14:05:22;7.80;;;4.88;;
18411;SDS011;27097;51.738;19.472;2022-10-13T14:07:53;10.80;;;4.93;;
18411;SDS011;27097;51.738;19.472;2022-10-13T14:10:21;7.68;;;4.65;;
18411;SDS011;27097;51.738;19.472;2022-10-13T14:12:49;9.20;;;4.45;;
18411;SDS011;27097;51.738;19.472;2022-10-13T14:15:16;13.30;;;4.53;;
18411;SDS011;27097;51.738;19.472;2022-10-13T14:17:43;15.68;;;5.13;;
18411;SDS011;27097;51.738;19.472;2022-10-13T14:20:10;9.38;;;4.82;;
18411;SDS011;27097;51.738;19.472;2022-10-13T14:22:39;9.25;;;4.13;;
18411;SDS011;27097;51.738;19.472;2022-10-13T14:25:06;9.23;;;4.65;;
18411;SDS011;27097;51.738;19.472;2022-10-13T14:27:33;12.15;;;4.70;;
18411;SDS011;27097;51.738;19.472;2022-10-13T14:30:01;12.63;;;4.97;;
18411;SDS011;27097;51.738;19.472;2022-10-13T14:32:28;9.18;;;4.93;;
18411;SDS011;27097;51.738;19.472;2022-10-13T14:34:55;9.75;;;5.30;;
18411;SDS011;27097;51.738;19.472;2022-10-13T14:37:22;9.82;;;4.80;;
18411;SDS011;27097;51.738;19.472;2022-10-13T14:39:51;26.35;;;5.55;;
18411;SDS011;27097;51.738;19.472;2022-10-13T14:42:17;8.48;;;4.93;;
18411;SDS011;27097;51.738;19.472;2022-10-13T14:44:44;10.32;;;5.03;;
18411;SDS011;27097;51.738;19.472;2022-10-13T14:47:11;10.75;;;5.03;;
18411;SDS011;27097;51.738;19.472;2022-10-13T14:49:38;11.80;;;5.40;;
18411;SDS011;27097;51.738;19.472;2022-10-13T14:52:05;13.30;;;5.28;;
18411;SDS011;27097;51.738;19.472;2022-10-13T14:54:32;9.57;;;5.40;;
18411;SDS011;27097;51.738;19.472;2022-10-13T14:57:03;13.02;;;5.88;;
18411;SDS011;27097;51.738;19.472;2022-10-13T14:59:32;10.98;;;5.50;;
18411;SDS011;27097;51.738;19.472;2022-10-13T15:01:59;12.73;;;6.03;;
18411;SDS011;27097;51.738;19.472;2022-10-13T15:04:27;1999.90;;;999.90;;
18411;SDS011;27097;51.738;19.472;2022-10-13T15:06:54;1999.90;;;480.48;;
18411;SDS011;27097;51.738;19.472;2022-10-13T15:09:22;1701.88;;;248.43;;
18411;SDS011;27097;51.738;19.472;2022-10-13T15:11:49;1999.03;;;280.30;;
18411;SDS011;27097;51.738;19.472;2022-10-13T15:14:17;1406.75;;;194.50;;